Terminal Aerodrome Forecast
Issued by NWS Charleston, WV

Current Version | Previous Version | Text Only | Print | Product List | Glossary Off
Versions: 1 2 3 4 5 6 7 8 9 10 11 12 13 14 15 16 17 18 19 20 21 22 23 24 25 26

000
FTUS41 KRLX 160900 AAA
TAFCRW
TAF AMD
KCRW 160904Z 1609/1706 13004KT 6SM RA FEW045 SCT060 OVC080
     FM161100 18008KT 5SM -SHRA BR OVC022
     FM161400 19008KT P6SM OVC016
     FM161800 25011G19KT P6SM OVC014
     FM170200 25011G16KT P6SM OVC010=

USA.gov is the U.S. government's official web portal to all federal, state and local government web resources and services.